sensor_id;sensor_type;location;lat;lon;timestamp;P1;durP1;ratioP1;P2;durP2;ratioP2
15082;SDS011;7640;53.116;6.878;2023-04-15T00:00:55;13.97;;;8.00;;
15082;SDS011;7640;53.116;6.878;2023-04-15T00:03:25;14.00;;;7.30;;
15082;SDS011;7640;53.116;6.878;2023-04-15T00:05:56;13.23;;;8.20;;
15082;SDS011;7640;53.116;6.878;2023-04-15T00:08:26;17.13;;;8.10;;
15082;SDS011;7640;53.116;6.878;2023-04-15T00:10:55;12.30;;;8.20;;
15082;SDS011;7640;53.116;6.878;2023-04-15T00:13:28;13.20;;;7.97;;
15082;SDS011;7640;53.116;6.878;2023-04-15T00:15:57;13.97;;;7.60;;
15082;SDS011;7640;53.116;6.878;2023-04-15T00:18:25;13.53;;;8.30;;
15082;SDS011;7640;53.116;6.878;2023-04-15T00:20:54;13.37;;;8.43;;
15082;SDS011;7640;53.116;6.878;2023-04-15T00:23:23;12.50;;;8.50;;
15082;SDS011;7640;53.116;6.878;2023-04-15T00:25:53;14.23;;;8.40;;
15082;SDS011;7640;53.116;6.878;2023-04-15T00:28:22;11.80;;;8.07;;
15082;SDS011;7640;53.116;6.878;2023-04-15T00:30:51;12.60;;;8.40;;
15082;SDS011;7640;53.116;6.878;2023-04-15T00:33:19;13.57;;;8.33;;
15082;SDS011;7640;53.116;6.878;2023-04-15T00:35:48;12.80;;;8.37;;
15082;SDS011;7640;53.116;6.878;2023-04-15T00:38:17;15.03;;;8.57;;
15082;SDS011;7640;53.116;6.878;2023-04-15T00:40:45;15.63;;;8.37;;
15082;SDS011;7640;53.116;6.878;2023-04-15T00:43:15;12.43;;;8.03;;
15082;SDS011;7640;53.116;6.878;2023-04-15T00:45:44;14.17;;;8.30;;
15082;SDS011;7640;53.116;6.878;2023-04-15T00:48:12;13.53;;;8.97;;
15082;SDS011;7640;53.116;6.878;2023-04-15T00:50:41;15.53;;;9.20;;
15082;SDS011;7640;53.116;6.878;2023-04-15T00:53:10;16.80;;;9.60;;
15082;SDS011;7640;53.116;6.878;2023-04-15T00:55:38;14.67;;;8.63;;
15082;SDS011;7640;53.116;6.878;2023-04-15T00:58:07;14.80;;;9.37;;
15082;SDS011;7640;53.116;6.878;2023-04-15T01:00:36;13.17;;;9.23;;
15082;SDS011;7640;53.116;6.878;2023-04-15T01:03:06;12.80;;;7.83;;
15082;SDS011;7640;53.116;6.878;2023-04-15T01:05:35;15.43;;;9.63;;
15082;SDS011;7640;53.116;6.878;2023-04-15T01:08:05;14.57;;;8.33;;
15082;SDS011;7640;53.116;6.878;2023-04-15T01:10:33;12.17;;;8.40;;
15082;SDS011;7640;53.116;6.878;2023-04-15T01:13:03;16.70;;;10.03;;
15082;SDS011;7640;53.116;6.878;2023-04-15T01:15:32;14.30;;;8.83;;
15082;SDS011;7640;53.116;6.878;2023-04-15T01:18:04;17.17;;;9.97;;
15082;SDS011;7640;53.116;6.878;2023-04-15T01:20:33;16.00;;;9.60;;
15082;SDS011;7640;53.116;6.878;2023-04-15T01:23:02;12.83;;;9.13;;
15082;SDS011;7640;53.116;6.878;2023-04-15T01:25:32;17.60;;;9.33;;
15082;SDS011;7640;53.116;6.878;2023-04-15T01:28:01;14.30;;;9.73;;
15082;SDS011;7640;53.116;6.878;2023-04-15T01:30:32;16.30;;;10.20;;
15082;SDS011;7640;53.116;6.878;2023-04-15T01:33:01;18.70;;;10.30;;
15082;SDS011;7640;53.116;6.878;2023-04-15T01:35:30;15.97;;;10.03;;
15082;SDS011;7640;53.116;6.878;2023-04-15T01:38:05;15.80;;;10.17;;
15082;SDS011;7640;53.116;6.878;2023-04-15T01:40:36;15.53;;;9.60;;
15082;SDS011;7640;53.116;6.878;2023-04-15T01:43:06;15.80;;;10.07;;
15082;SDS011;7640;53.116;6.878;2023-04-15T01:45:34;14.60;;;9.97;;
15082;SDS011;7640;53.116;6.878;2023-04-15T01:48:03;16.50;;;9.73;;
15082;SDS011;7640;53.116;6.878;2023-04-15T01:50:32;17.63;;;10.47;;
15082;SDS011;7640;53.116;6.878;2023-04-15T01:53:02;16.13;;;9.70;;
15082;SDS011;7640;53.116;6.878;2023-04-15T01:55:30;16.60;;;9.57;;
15082;SDS011;7640;53.116;6.878;2023-04-15T01:58:00;13.93;;;10.40;;
15082;SDS011;7640;53.116;6.878;2023-04-15T02:00:28;15.63;;;10.60;;
15082;SDS011;7640;53.116;6.878;2023-04-15T02:02:59;17.67;;;10.57;;
15082;SDS011;7640;53.116;6.878;2023-04-15T02:05:28;13.53;;;10.37;;
15082;SDS011;7640;53.116;6.878;2023-04-15T02:07:57;18.60;;;11.23;;
15082;SDS011;7640;53.116;6.878;2023-04-15T02:10:25;17.30;;;10.87;;
15082;SDS011;7640;53.116;6.878;2023-04-15T02:12:54;19.17;;;10.63;;
15082;SDS011;7640;53.116;6.878;2023-04-15T02:15:24;18.50;;;11.70;;
15082;SDS011;7640;53.116;6.878;2023-04-15T02:17:53;17.67;;;11.07;;
15082;SDS011;7640;53.116;6.878;2023-04-15T02:20:22;19.87;;;11.00;;
15082;SDS011;7640;53.116;6.878;2023-04-15T02:22:51;18.47;;;12.43;;
15082;SDS011;7640;53.116;6.878;2023-04-15T02:25:19;15.17;;;10.97;;
15082;SDS011;7640;53.116;6.878;2023-04-15T02:27:48;16.73;;;11.17;;
15082;SDS011;7640;53.116;6.878;2023-04-15T02:30:16;16.77;;;11.53;;
15082;SDS011;7640;53.116;6.878;2023-04-15T02:32:47;17.77;;;11.57;;
15082;SDS011;7640;53.116;6.878;2023-04-15T02:35:16;19.97;;;12.43;;
15082;SDS011;7640;53.116;6.878;2023-04-15T02:37:45;16.90;;;11.47;;
15082;SDS011;7640;53.116;6.878;2023-04-15T02:40:14;20.20;;;11.97;;
15082;SDS011;7640;53.116;6.878;2023-04-15T02:42:42;18.87;;;12.07;;
15082;SDS011;7640;53.116;6.878;2023-04-15T02:45:11;17.50;;;11.80;;
15082;SDS011;7640;53.116;6.878;2023-04-15T02:47:40;18.37;;;12.80;;
15082;SDS011;7640;53.116;6.878;2023-04-15T02:50:11;21.23;;;13.43;;
15082;SDS011;7640;53.116;6.878;2023-04-15T02:52:41;22.10;;;13.40;;
15082;SDS011;7640;53.116;6.878;2023-04-15T02:55:10;21.40;;;13.40;;
15082;SDS011;7640;53.116;6.878;2023-04-15T02:57:39;20.60;;;14.07;;
15082;SDS011;7640;53.116;6.878;2023-04-15T03:03:36;21.37;;;13.93;;
15082;SDS011;7640;53.116;6.878;2023-04-15T03:06:06;22.60;;;14.27;;
15082;SDS011;7640;53.116;6.878;2023-04-15T03:08:35;26.03;;;15.13;;
15082;SDS011;7640;53.116;6.878;2023-04-15T03:11:03;23.43;;;15.40;;
15082;SDS011;7640;53.116;6.878;2023-04-15T03:13:33;26.20;;;16.20;;
15082;SDS011;7640;53.116;6.878;2023-04-15T03:16:01;27.80;;;16.83;;
15082;SDS011;7640;53.116;6.878;2023-04-15T03:18:31;25.93;;;16.13;;
15082;SDS011;7640;53.116;6.878;2023-04-15T03:20:59;31.10;;;18.73;;
15082;SDS011;7640;53.116;6.878;2023-04-15T03:23:30;29.20;;;17.77;;
15082;SDS011;7640;53.116;6.878;2023-04-15T03:26:00;31.60;;;18.50;;
15082;SDS011;7640;53.116;6.878;2023-04-15T03:28:29;31.00;;;17.47;;
15082;SDS011;7640;53.116;6.878;2023-04-15T03:30:59;31.90;;;18.23;;
15082;SDS011;7640;53.116;6.878;2023-04-15T03:33:27;30.23;;;18.43;;
15082;SDS011;7640;53.116;6.878;2023-04-15T03:35:56;29.70;;;18.00;;
15082;SDS011;7640;53.116;6.878;2023-04-15T03:38:24;30.73;;;18.77;;
15082;SDS011;7640;53.116;6.878;2023-04-15T03:40:54;31.47;;;17.90;;
15082;SDS011;7640;53.116;6.878;2023-04-15T03:43:23;31.77;;;18.20;;
15082;SDS011;7640;53.116;6.878;2023-04-15T03:45:52;31.70;;;19.17;;
15082;SDS011;7640;53.116;6.878;2023-04-15T03:48:21;34.77;;;18.97;;
15082;SDS011;7640;53.116;6.878;2023-04-15T03:50:50;32.73;;;19.47;;
15082;SDS011;7640;53.116;6.878;2023-04-15T03:53:19;31.07;;;18.77;;
15082;SDS011;7640;53.116;6.878;2023-04-15T03:55:48;35.07;;;20.03;;
15082;SDS011;7640;53.116;6.878;2023-04-15T03:58:18;38.47;;;21.27;;
15082;SDS011;7640;53.116;6.878;2023-04-15T04:00:47;40.00;;;21.33;;
15082;SDS011;7640;53.116;6.878;2023-04-15T04:03:16;35.80;;;20.80;;
15082;SDS011;7640;53.116;6.878;2023-04-15T04:05:45;35.80;;;20.47;;
15082;SDS011;7640;53.116;6.878;2023-04-15T04:08:13;36.50;;;20.37;;
15082;SDS011;7640;53.116;6.878;2023-04-15T04:10:42;38.27;;;20.40;;
15082;SDS011;7640;53.116;6.878;2023-04-15T04:13:10;41.13;;;23.00;;
15082;SDS011;7640;53.116;6.878;2023-04-15T04:15:40;37.87;;;21.97;;
15082;SDS011;7640;53.116;6.878;2023-04-15T04:18:09;36.27;;;21.47;;
15082;SDS011;7640;53.116;6.878;2023-04-15T04:20:37;35.20;;;21.00;;
15082;SDS011;7640;53.116;6.878;2023-04-15T04:23:06;39.20;;;22.27;;
15082;SDS011;7640;53.116;6.878;2023-04-15T04:25:35;38.20;;;20.80;;
15082;SDS011;7640;53.116;6.878;2023-04-15T04:28:04;39.17;;;21.93;;
15082;SDS011;7640;53.116;6.878;2023-04-15T04:30:33;35.07;;;20.67;;
15082;SDS011;7640;53.116;6.878;2023-04-15T04:33:05;36.93;;;21.40;;
15082;SDS011;7640;53.116;6.878;2023-04-15T04:35:34;37.87;;;20.63;;
15082;SDS011;7640;53.116;6.878;2023-04-15T04:38:03;38.83;;;21.37;;
15082;SDS011;7640;53.116;6.878;2023-04-15T04:40:31;36.97;;;21.27;;
15082;SDS011;7640;53.116;6.878;2023-04-15T04:43:00;35.80;;;20.67;;
15082;SDS011;7640;53.116;6.878;2023-04-15T04:45:28;37.97;;;20.57;;
15082;SDS011;7640;53.116;6.878;2023-04-15T04:47:57;35.07;;;19.47;;
15082;SDS011;7640;53.116;6.878;2023-04-15T04:50:27;36.80;;;21.07;;
15082;SDS011;7640;53.116;6.878;2023-04-15T04:52:55;40.47;;;22.90;;
15082;SDS011;7640;53.116;6.878;2023-04-15T04:55:25;38.30;;;21.03;;
15082;SDS011;7640;53.116;6.878;2023-04-15T04:57:54;37.13;;;21.20;;
15082;SDS011;7640;53.116;6.878;2023-04-15T05:00:23;37.43;;;20.50;;
15082;SDS011;7640;53.116;6.878;2023-04-15T05:02:51;35.07;;;20.63;;
15082;SDS011;7640;53.116;6.878;2023-04-15T05:05:20;35.40;;;20.63;;
15082;SDS011;7640;53.116;6.878;2023-04-15T05:07:50;35.03;;;21.30;;
15082;SDS011;7640;53.116;6.878;2023-04-15T05:10:18;37.27;;;21.07;;
15082;SDS011;7640;53.116;6.878;2023-04-15T05:12:47;35.40;;;20.90;;
15082;SDS011;7640;53.116;6.878;2023-04-15T05:15:17;39.13;;;21.67;;
15082;SDS011;7640;53.116;6.878;2023-04-15T05:17:46;37.33;;;21.33;;
15082;SDS011;7640;53.116;6.878;2023-04-15T05:20:15;35.10;;;19.93;;
15082;SDS011;7640;53.116;6.878;2023-04-15T05:22:44;34.07;;;20.83;;
15082;SDS011;7640;53.116;6.878;2023-04-15T05:25:14;36.73;;;21.20;;
15082;SDS011;7640;53.116;6.878;2023-04-15T05:27:43;37.93;;;22.37;;
15082;SDS011;7640;53.116;6.878;2023-04-15T05:30:12;39.00;;;21.40;;
15082;SDS011;7640;53.116;6.878;2023-04-15T05:32:40;35.90;;;20.93;;
15082;SDS011;7640;53.116;6.878;2023-04-15T05:35:09;35.73;;;20.67;;
15082;SDS011;7640;53.116;6.878;2023-04-15T05:37:37;37.97;;;21.77;;
15082;SDS011;7640;53.116;6.878;2023-04-15T05:40:06;39.63;;;23.50;;
15082;SDS011;7640;53.116;6.878;2023-04-15T05:42:38;38.70;;;22.03;;
15082;SDS011;7640;53.116;6.878;2023-04-15T05:45:06;37.17;;;21.47;;
15082;SDS011;7640;53.116;6.878;2023-04-15T05:47:35;33.27;;;19.97;;
15082;SDS011;7640;53.116;6.878;2023-04-15T05:50:04;34.73;;;20.07;;
15082;SDS011;7640;53.116;6.878;2023-04-15T05:52:34;31.90;;;18.73;;
15082;SDS011;7640;53.116;6.878;2023-04-15T05:55:02;35.43;;;20.13;;
15082;SDS011;7640;53.116;6.878;2023-04-15T05:57:32;33.87;;;19.20;;
15082;SDS011;7640;53.116;6.878;2023-04-15T06:00:02;34.40;;;18.73;;
15082;SDS011;7640;53.116;6.878;2023-04-15T06:02:31;31.30;;;19.40;;
15082;SDS011;7640;53.116;6.878;2023-04-15T06:05:00;33.27;;;18.53;;
15082;SDS011;7640;53.116;6.878;2023-04-15T06:07:29;33.13;;;19.20;;
15082;SDS011;7640;53.116;6.878;2023-04-15T06:09:57;32.33;;;18.83;;
15082;SDS011;7640;53.116;6.878;2023-04-15T06:12:26;38.07;;;19.57;;
15082;SDS011;7640;53.116;6.878;2023-04-15T06:14:54;33.37;;;18.60;;
15082;SDS011;7640;53.116;6.878;2023-04-15T06:17:27;30.27;;;18.30;;
15082;SDS011;7640;53.116;6.878;2023-04-15T06:19:55;31.10;;;18.07;;
15082;SDS011;7640;53.116;6.878;2023-04-15T06:22:23;30.30;;;18.10;;
15082;SDS011;7640;53.116;6.878;2023-04-15T06:24:52;22.10;;;13.53;;
15082;SDS011;7640;53.116;6.878;2023-04-15T06:27:21;24.50;;;13.57;;
15082;SDS011;7640;53.116;6.878;2023-04-15T06:29:50;22.00;;;14.57;;
15082;SDS011;7640;53.116;6.878;2023-04-15T06:32:18;24.33;;;13.67;;
15082;SDS011;7640;53.116;6.878;2023-04-15T06:34:48;24.03;;;14.00;;
15082;SDS011;7640;53.116;6.878;2023-04-15T06:37:17;25.10;;;14.43;;
15082;SDS011;7640;53.116;6.878;2023-04-15T06:39:46;22.77;;;13.37;;
15082;SDS011;7640;53.116;6.878;2023-04-15T06:42:15;20.57;;;13.53;;
15082;SDS011;7640;53.116;6.878;2023-04-15T06:44:43;24.07;;;14.70;;
15082;SDS011;7640;53.116;6.878;2023-04-15T06:47:12;23.63;;;14.27;;
15082;SDS011;7640;53.116;6.878;2023-04-15T06:49:41;24.37;;;14.47;;
15082;SDS011;7640;53.116;6.878;2023-04-15T06:52:11;23.47;;;14.27;;
15082;SDS011;7640;53.116;6.878;2023-04-15T06:54:41;21.37;;;14.07;;
15082;SDS011;7640;53.116;6.878;2023-04-15T06:57:10;21.07;;;13.50;;
15082;SDS011;7640;53.116;6.878;2023-04-15T06:59:38;24.10;;;14.73;;
15082;SDS011;7640;53.116;6.878;2023-04-15T07:02:08;22.53;;;14.33;;
15082;SDS011;7640;53.116;6.878;2023-04-15T07:04:40;22.67;;;13.87;;
15082;SDS011;7640;53.116;6.878;2023-04-15T07:07:09;21.33;;;14.23;;
15082;SDS011;7640;53.116;6.878;2023-04-15T07:09:38;21.60;;;14.60;;
15082;SDS011;7640;53.116;6.878;2023-04-15T07:12:08;20.90;;;13.63;;
15082;SDS011;7640;53.116;6.878;2023-04-15T07:14:37;22.30;;;13.20;;
15082;SDS011;7640;53.116;6.878;2023-04-15T07:17:05;19.63;;;12.63;;
15082;SDS011;7640;53.116;6.878;2023-04-15T07:19:35;20.10;;;12.83;;
15082;SDS011;7640;53.116;6.878;2023-04-15T07:22:04;20.87;;;12.37;;
15082;SDS011;7640;53.116;6.878;2023-04-15T07:24:33;17.07;;;11.83;;
15082;SDS011;7640;53.116;6.878;2023-04-15T07:27:03;15.37;;;11.50;;
15082;SDS011;7640;53.116;6.878;2023-04-15T07:29:31;16.17;;;10.30;;
15082;SDS011;7640;53.116;6.878;2023-04-15T07:32:00;15.33;;;9.93;;
15082;SDS011;7640;53.116;6.878;2023-04-15T07:34:28;13.27;;;9.03;;
15082;SDS011;7640;53.116;6.878;2023-04-15T07:36:58;11.77;;;8.57;;
15082;SDS011;7640;53.116;6.878;2023-04-15T07:39:26;11.33;;;8.00;;
15082;SDS011;7640;53.116;6.878;2023-04-15T07:41:56;12.10;;;7.63;;
15082;SDS011;7640;53.116;6.878;2023-04-15T07:44:26;13.13;;;7.60;;
15082;SDS011;7640;53.116;6.878;2023-04-15T07:46:55;9.93;;;7.23;;
15082;SDS011;7640;53.116;6.878;2023-04-15T07:49:24;10.70;;;7.67;;
15082;SDS011;7640;53.116;6.878;2023-04-15T07:51:52;10.20;;;6.87;;
15082;SDS011;7640;53.116;6.878;2023-04-15T07:54:25;10.90;;;7.20;;
15082;SDS011;7640;53.116;6.878;2023-04-15T07:56:54;10.30;;;7.27;;
15082;SDS011;7640;53.116;6.878;2023-04-15T07:59:23;10.57;;;7.20;;
15082;SDS011;7640;53.116;6.878;2023-04-15T08:01:54;10.80;;;6.63;;
15082;SDS011;7640;53.116;6.878;2023-04-15T08:04:23;9.80;;;6.87;;
15082;SDS011;7640;53.116;6.878;2023-04-15T08:06:52;8.37;;;6.63;;
15082;SDS011;7640;53.116;6.878;2023-04-15T08:09:21;11.50;;;6.70;;
15082;SDS011;7640;53.116;6.878;2023-04-15T08:11:50;11.50;;;6.93;;
15082;SDS011;7640;53.116;6.878;2023-04-15T08:14:18;10.53;;;5.33;;
15082;SDS011;7640;53.116;6.878;2023-04-15T08:16:47;7.67;;;5.17;;
15082;SDS011;7640;53.116;6.878;2023-04-15T08:19:18;7.90;;;4.60;;
15082;SDS011;7640;53.116;6.878;2023-04-15T08:21:46;7.77;;;4.87;;
15082;SDS011;7640;53.116;6.878;2023-04-15T08:24:15;7.70;;;4.87;;
15082;SDS011;7640;53.116;6.878;2023-04-15T08:26:44;7.97;;;4.97;;
15082;SDS011;7640;53.116;6.878;2023-04-15T08:29:13;5.43;;;4.83;;
15082;SDS011;7640;53.116;6.878;2023-04-15T08:31:41;5.93;;;4.70;;
15082;SDS011;7640;53.116;6.878;2023-04-15T08:34:10;7.33;;;4.90;;
15082;SDS011;7640;53.116;6.878;2023-04-15T08:36:41;9.00;;;5.00;;
15082;SDS011;7640;53.116;6.878;2023-04-15T08:39:10;6.30;;;4.40;;
15082;SDS011;7640;53.116;6.878;2023-04-15T08:41:39;6.70;;;5.03;;
15082;SDS011;7640;53.116;6.878;2023-04-15T08:44:13;5.60;;;4.23;;
15082;SDS011;7640;53.116;6.878;2023-04-15T08:46:42;6.07;;;4.50;;
15082;SDS011;7640;53.116;6.878;2023-04-15T08:49:11;6.53;;;4.90;;
15082;SDS011;7640;53.116;6.878;2023-04-15T08:51:41;5.47;;;4.10;;
15082;SDS011;7640;53.116;6.878;2023-04-15T08:54:10;6.97;;;4.30;;
15082;SDS011;7640;53.116;6.878;2023-04-15T08:56:39;4.87;;;4.17;;
15082;SDS011;7640;53.116;6.878;2023-04-15T08:59:08;4.43;;;3.50;;
15082;SDS011;7640;53.116;6.878;2023-04-15T09:01:37;13.83;;;4.53;;
15082;SDS011;7640;53.116;6.878;2023-04-15T09:04:07;5.83;;;3.90;;
15082;SDS011;7640;53.116;6.878;2023-04-15T09:06:36;7.07;;;3.97;;
15082;SDS011;7640;53.116;6.878;2023-04-15T09:09:08;4.37;;;3.50;;
15082;SDS011;7640;53.116;6.878;2023-04-15T09:11:37;5.17;;;3.50;;
15082;SDS011;7640;53.116;6.878;2023-04-15T09:14:06;3.80;;;3.37;;
15082;SDS011;7640;53.116;6.878;2023-04-15T09:19:24;7.10;;;3.13;;
15082;SDS011;7640;53.116;6.878;2023-04-15T09:21:56;4.73;;;2.90;;
15082;SDS011;7640;53.116;6.878;2023-04-15T09:24:32;5.80;;;3.17;;
15082;SDS011;7640;53.116;6.878;2023-04-15T09:27:04;5.70;;;3.17;;
15082;SDS011;7640;53.116;6.878;2023-04-15T09:29:33;4.17;;;3.40;;
15082;SDS011;7640;53.116;6.878;2023-04-15T09:32:09;4.63;;;3.13;;
15082;SDS011;7640;53.116;6.878;2023-04-15T09:34:39;7.13;;;3.53;;
15082;SDS011;7640;53.116;6.878;2023-04-15T09:37:09;4.50;;;3.00;;
15082;SDS011;7640;53.116;6.878;2023-04-15T09:39:56;5.23;;;3.00;;
15082;SDS011;7640;53.116;6.878;2023-04-15T09:42:25;4.03;;;3.20;;
15082;SDS011;7640;53.116;6.878;2023-04-15T09:44:54;5.93;;;3.10;;
15082;SDS011;7640;53.116;6.878;2023-04-15T09:47:26;4.33;;;2.83;;
15082;SDS011;7640;53.116;6.878;2023-04-15T09:49:55;3.73;;;2.90;;
15082;SDS011;7640;53.116;6.878;2023-04-15T09:52:26;4.93;;;3.03;;
15082;SDS011;7640;53.116;6.878;2023-04-15T09:54:56;4.53;;;3.10;;
15082;SDS011;7640;53.116;6.878;2023-04-15T09:57:32;5.70;;;3.07;;
15082;SDS011;7640;53.116;6.878;2023-04-15T10:00:02;4.37;;;2.80;;
15082;SDS011;7640;53.116;6.878;2023-04-15T10:02:35;5.40;;;2.73;;
15082;SDS011;7640;53.116;6.878;2023-04-15T10:05:05;5.60;;;3.00;;
15082;SDS011;7640;53.116;6.878;2023-04-15T10:07:36;8.30;;;3.67;;
15082;SDS011;7640;53.116;6.878;2023-04-15T10:10:06;5.33;;;3.40;;
15082;SDS011;7640;53.116;6.878;2023-04-15T10:12:36;4.60;;;3.50;;
15082;SDS011;7640;53.116;6.878;2023-04-15T10:15:08;3.87;;;2.80;;
15082;SDS011;7640;53.116;6.878;2023-04-15T10:17:43;4.20;;;2.83;;
15082;SDS011;7640;53.116;6.878;2023-04-15T10:20:12;4.23;;;2.33;;
15082;SDS011;7640;53.116;6.878;2023-04-15T10:22:43;6.67;;;2.67;;
15082;SDS011;7640;53.116;6.878;2023-04-15T10:25:13;5.77;;;2.40;;
15082;SDS011;7640;53.116;6.878;2023-04-15T10:27:42;4.70;;;2.93;;
15082;SDS011;7640;53.116;6.878;2023-04-15T10:30:14;4.57;;;2.60;;
15082;SDS011;7640;53.116;6.878;2023-04-15T10:32:43;4.43;;;2.50;;
15082;SDS011;7640;53.116;6.878;2023-04-15T10:35:12;3.70;;;2.40;;
15082;SDS011;7640;53.116;6.878;2023-04-15T10:37:43;3.70;;;2.43;;
15082;SDS011;7640;53.116;6.878;2023-04-15T10:42:57;5.20;;;2.57;;
15082;SDS011;7640;53.116;6.878;2023-04-15T10:45:28;4.97;;;3.17;;
15082;SDS011;7640;53.116;6.878;2023-04-15T10:48:01;3.10;;;2.80;;
15082;SDS011;7640;53.116;6.878;2023-04-15T10:50:31;4.00;;;2.43;;
15082;SDS011;7640;53.116;6.878;2023-04-15T10:53:02;3.80;;;2.50;;
15082;SDS011;7640;53.116;6.878;2023-04-15T10:55:32;5.77;;;2.40;;
15082;SDS011;7640;53.116;6.878;2023-04-15T10:58:01;2.87;;;2.40;;
15082;SDS011;7640;53.116;6.878;2023-04-15T11:00:30;3.87;;;2.73;;
15082;SDS011;7640;53.116;6.878;2023-04-15T11:03:04;3.47;;;2.67;;
15082;SDS011;7640;53.116;6.878;2023-04-15T11:14:33;6.00;;;3.10;;
15082;SDS011;7640;53.116;6.878;2023-04-15T11:17:06;4.50;;;3.13;;
15082;SDS011;7640;53.116;6.878;2023-04-15T11:19:37;5.53;;;3.10;;
15082;SDS011;7640;53.116;6.878;2023-04-15T11:22:06;4.60;;;2.60;;
15082;SDS011;7640;53.116;6.878;2023-04-15T11:24:36;4.43;;;2.63;;
15082;SDS011;7640;53.116;6.878;2023-04-15T11:27:20;5.90;;;2.73;;
15082;SDS011;7640;53.116;6.878;2023-04-15T11:29:49;7.23;;;2.80;;
15082;SDS011;7640;53.116;6.878;2023-04-15T11:32:18;4.50;;;2.60;;
15082;SDS011;7640;53.116;6.878;2023-04-15T11:34:50;4.53;;;2.47;;
15082;SDS011;7640;53.116;6.878;2023-04-15T11:37:26;7.70;;;3.53;;
15082;SDS011;7640;53.116;6.878;2023-04-15T11:39:57;5.87;;;2.73;;
15082;SDS011;7640;53.116;6.878;2023-04-15T11:42:25;6.20;;;2.80;;
15082;SDS011;7640;53.116;6.878;2023-04-15T11:45:12;5.73;;;2.60;;
15082;SDS011;7640;53.116;6.878;2023-04-15T11:47:42;5.83;;;2.93;;
15082;SDS011;7640;53.116;6.878;2023-04-15T11:50:14;6.80;;;2.70;;
15082;SDS011;7640;53.116;6.878;2023-04-15T11:52:54;5.77;;;2.73;;
15082;SDS011;7640;53.116;6.878;2023-04-15T11:55:25;5.90;;;2.70;;
15082;SDS011;7640;53.116;6.878;2023-04-15T12:00:44;12.90;;;3.40;;
15082;SDS011;7640;53.116;6.878;2023-04-15T12:03:19;7.90;;;3.00;;
15082;SDS011;7640;53.116;6.878;2023-04-15T12:06:07;7.00;;;3.53;;
15082;SDS011;7640;53.116;6.878;2023-04-15T12:08:50;7.87;;;3.23;;
15082;SDS011;7640;53.116;6.878;2023-04-15T12:11:30;7.63;;;3.60;;
15082;SDS011;7640;53.116;6.878;2023-04-15T12:14:02;7.93;;;3.27;;
15082;SDS011;7640;53.116;6.878;2023-04-15T12:16:34;4.30;;;3.17;;
15082;SDS011;7640;53.116;6.878;2023-04-15T12:19:15;6.87;;;3.37;;
15082;SDS011;7640;53.116;6.878;2023-04-15T12:21:50;7.23;;;3.40;;
15082;SDS011;7640;53.116;6.878;2023-04-15T12:24:20;8.10;;;4.13;;
15082;SDS011;7640;53.116;6.878;2023-04-15T12:26:51;7.40;;;3.40;;
15082;SDS011;7640;53.116;6.878;2023-04-15T12:29:24;7.13;;;3.60;;
15082;SDS011;7640;53.116;6.878;2023-04-15T12:31:54;9.47;;;3.43;;
15082;SDS011;7640;53.116;6.878;2023-04-15T12:34:25;8.70;;;3.10;;
15082;SDS011;7640;53.116;6.878;2023-04-15T12:36:56;9.13;;;3.30;;
15082;SDS011;7640;53.116;6.878;2023-04-15T12:39:30;9.13;;;3.40;;
15082;SDS011;7640;53.116;6.878;2023-04-15T12:42:03;9.70;;;4.03;;
15082;SDS011;7640;53.116;6.878;2023-04-15T12:44:34;10.77;;;3.63;;
15082;SDS011;7640;53.116;6.878;2023-04-15T12:47:04;11.83;;;3.73;;
15082;SDS011;7640;53.116;6.878;2023-04-15T12:49:34;5.77;;;3.20;;
15082;SDS011;7640;53.116;6.878;2023-04-15T12:52:06;6.80;;;3.77;;
15082;SDS011;7640;53.116;6.878;2023-04-15T12:54:34;7.63;;;3.37;;
15082;SDS011;7640;53.116;6.878;2023-04-15T12:57:04;6.13;;;3.30;;
15082;SDS011;7640;53.116;6.878;2023-04-15T12:59:33;8.63;;;3.57;;
15082;SDS011;7640;53.116;6.878;2023-04-15T13:02:03;8.47;;;3.83;;
15082;SDS011;7640;53.116;6.878;2023-04-15T13:04:31;7.50;;;3.87;;
15082;SDS011;7640;53.116;6.878;2023-04-15T13:07:00;6.23;;;3.20;;
15082;SDS011;7640;53.116;6.878;2023-04-15T13:09:29;9.67;;;3.87;;
15082;SDS011;7640;53.116;6.878;2023-04-15T13:11:57;6.43;;;3.67;;
15082;SDS011;7640;53.116;6.878;2023-04-15T13:14:28;7.27;;;4.03;;
15082;SDS011;7640;53.116;6.878;2023-04-15T13:16:56;11.83;;;3.80;;
15082;SDS011;7640;53.116;6.878;2023-04-15T13:19:25;9.43;;;4.27;;
15082;SDS011;7640;53.116;6.878;2023-04-15T13:21:54;9.23;;;4.30;;
15082;SDS011;7640;53.116;6.878;2023-04-15T13:24:22;10.03;;;4.53;;
15082;SDS011;7640;53.116;6.878;2023-04-15T13:26:55;8.83;;;5.00;;
15082;SDS011;7640;53.116;6.878;2023-04-15T13:29:24;11.10;;;4.40;;
15082;SDS011;7640;53.116;6.878;2023-04-15T13:31:54;5.97;;;3.97;;
15082;SDS011;7640;53.116;6.878;2023-04-15T13:34:23;8.67;;;4.77;;
15082;SDS011;7640;53.116;6.878;2023-04-15T13:36:53;8.57;;;4.20;;
15082;SDS011;7640;53.116;6.878;2023-04-15T13:39:21;10.57;;;4.50;;
15082;SDS011;7640;53.116;6.878;2023-04-15T13:41:50;8.30;;;4.30;;
15082;SDS011;7640;53.116;6.878;2023-04-15T13:44:18;9.30;;;3.77;;
15082;SDS011;7640;53.116;6.878;2023-04-15T13:46:47;7.50;;;4.13;;
15082;SDS011;7640;53.116;6.878;2023-04-15T13:49:17;8.33;;;3.80;;
15082;SDS011;7640;53.116;6.878;2023-04-15T13:51:46;10.40;;;4.37;;
15082;SDS011;7640;53.116;6.878;2023-04-15T13:54:15;8.03;;;3.97;;
15082;SDS011;7640;53.116;6.878;2023-04-15T13:56:43;11.73;;;5.97;;
15082;SDS011;7640;53.116;6.878;2023-04-15T13:59:12;7.97;;;4.67;;
15082;SDS011;7640;53.116;6.878;2023-04-15T14:01:40;11.20;;;4.90;;
15082;SDS011;7640;53.116;6.878;2023-04-15T14:04:09;9.60;;;5.20;;
15082;SDS011;7640;53.116;6.878;2023-04-15T14:06:39;10.67;;;5.50;;
15082;SDS011;7640;53.116;6.878;2023-04-15T14:09:08;10.87;;;4.60;;
15082;SDS011;7640;53.116;6.878;2023-04-15T14:11:37;9.83;;;5.40;;
15082;SDS011;7640;53.116;6.878;2023-04-15T14:14:06;15.30;;;7.53;;
15082;SDS011;7640;53.116;6.878;2023-04-15T14:16:34;7.53;;;5.30;;
15082;SDS011;7640;53.116;6.878;2023-04-15T14:19:03;7.87;;;5.20;;
15082;SDS011;7640;53.116;6.878;2023-04-15T14:21:32;12.87;;;5.60;;
15082;SDS011;7640;53.116;6.878;2023-04-15T14:24:02;8.57;;;4.83;;
15082;SDS011;7640;53.116;6.878;2023-04-15T14:26:30;9.37;;;4.80;;
15082;SDS011;7640;53.116;6.878;2023-04-15T14:28:59;10.00;;;5.10;;
15082;SDS011;7640;53.116;6.878;2023-04-15T14:31:28;10.97;;;5.07;;
15082;SDS011;7640;53.116;6.878;2023-04-15T14:33:56;10.23;;;5.77;;
15082;SDS011;7640;53.116;6.878;2023-04-15T14:36:25;9.97;;;4.83;;
15082;SDS011;7640;53.116;6.878;2023-04-15T14:38:57;12.60;;;5.80;;
15082;SDS011;7640;53.116;6.878;2023-04-15T14:41:27;15.33;;;5.90;;
15082;SDS011;7640;53.116;6.878;2023-04-15T14:43:55;13.13;;;6.37;;
15082;SDS011;7640;53.116;6.878;2023-04-15T14:46:24;17.30;;;6.70;;
15082;SDS011;7640;53.116;6.878;2023-04-15T14:48:53;14.77;;;6.33;;
15082;SDS011;7640;53.116;6.878;2023-04-15T14:51:21;14.10;;;5.87;;
15082;SDS011;7640;53.116;6.878;2023-04-15T14:53:52;16.97;;;6.57;;
15082;SDS011;7640;53.116;6.878;2023-04-15T14:56:21;16.57;;;7.13;;
15082;SDS011;7640;53.116;6.878;2023-04-15T14:58:51;13.97;;;6.77;;
15082;SDS011;7640;53.116;6.878;2023-04-15T15:01:20;13.37;;;7.30;;
15082;SDS011;7640;53.116;6.878;2023-04-15T15:03:48;14.23;;;7.23;;
15082;SDS011;7640;53.116;6.878;2023-04-15T15:06:19;12.47;;;6.77;;
15082;SDS011;7640;53.116;6.878;2023-04-15T15:08:48;13.87;;;6.73;;
15082;SDS011;7640;53.116;6.878;2023-04-15T15:11:23;13.70;;;6.73;;
15082;SDS011;7640;53.116;6.878;2023-04-15T15:13:53;13.77;;;6.90;;
15082;SDS011;7640;53.116;6.878;2023-04-15T15:16:23;15.43;;;7.87;;
15082;SDS011;7640;53.116;6.878;2023-04-15T15:18:52;12.43;;;6.23;;
15082;SDS011;7640;53.116;6.878;2023-04-15T15:21:21;13.33;;;7.40;;
15082;SDS011;7640;53.116;6.878;2023-04-15T15:23:50;15.53;;;8.10;;